EST,Max TemperatureF,Mean TemperatureF,Min TemperatureF,Max Dew PointF,MeanDew PointF,Min DewpointF,Max Humidity, Mean Humidity, Min Humidity, Max Sea Level PressureIn, Mean Sea Level PressureIn, Min Sea Level PressureIn, Max VisibilityMiles, Mean VisibilityMiles, Min VisibilityMiles, Max Wind SpeedMPH, Mean Wind SpeedMPH, Max Gust SpeedMPH,PrecipitationIn, CloudCover, Events, WindDirDegrees
2013-1-1,30,21,12,24,13,2,81,66,55,30.09,30.03,29.92,10,8,1,18,13,23,0.00,6,Snow,296
2013-1-2,24,20,17,14,12,10,74,69,63,30.24,30.14,30.02,10,10,7,20,12,24,0.00,7,Snow,255
2013-1-3,30,22,15,25,19,9,88,79,69,30.22,30.07,29.95,10,6,1,23,9,30,0.02,8,Snow,229
2013-1-4,32,29,26,25,22,18,80,73,69,30.10,30.00,29.91,10,8,6,40,24,60,0.00,6,Snow,246
2013-1-5,33,30,28,27,23,21,82,74,69,30.33,30.20,30.07,10,9,7,18,14,28,0.00,8,,228
2013-1-6,35,34,32,31,30,27,89,83,72,30.15,29.97,29.91,10,6,4,20,15,29,0.02,8,Rain-Snow,239
2013-1-7,34,29,24,27,21,18,82,75,69,30.43,30.31,30.13,10,10,7,21,10,29,0.00,6,Snow,246
2013-1-8,36,32,28,29,26,23,88,77,70,30.34,30.27,30.18,10,8,6,21,13,28,0.00,4,,217
2013-1-9,43,36,30,34,29,23,76,68,57,30.40,30.14,29.98,10,10,7,32,14,50,0.00,3,Rain,222
2013-1-10,41,36,30,28,26,25,82,70,53,30.63,30.53,30.41,10,10,10,12,7,,0.00,6,,241
2013-1-11,48,41,34,45,36,26,90,76,66,30.37,30.01,29.86,10,9,5,20,8,28,0.02,7,Rain,170
2013-1-12,57,50,44,49,45,42,93,83,72,30.01,29.96,29.92,10,10,9,21,9,29,0.00,4,,201
2013-1-13,62,53,44,54,48,43,100,87,72,29.94,29.81,29.73,10,8,2,26,9,39,0.60,7,Rain,200
2013-1-14,44,35,24,43,27,18,93,77,64,30.43,30.17,29.76,10,9,2,21,13,29,0.00,8,Rain-Snow,272
2013-1-15,30,28,25,22,19,15,80,71,52,30.45,30.36,30.20,10,10,7,9,5,,0.00,7,,253
2013-1-16,37,32,28,28,24,21,78,71,64,30.15,29.93,29.78,10,9,7,22,7,30,0.00,7,,224
2013-1-17,34,24,15,26,16,10,86,72,59,30.23,30.11,29.90,10,8,2,18,13,28,0.00,8,Snow,19
2013-1-18,34,22,12,21,11,4,88,73,54,30.49,30.30,30.05,10,6,0,24,6,33,0.03,6,Fog-Snow,247
2013-1-19,46,41,36,29,26,21,62,54,42,30.03,29.87,29.57,10,10,10,29,22,43,0.00,7,,226
2013-1-20,46,32,18,34,16,7,87,66,50,30.14,29.87,29.47,10,7,1,39,26,55,0.01,6,Rain-Snow-Thunderstorm,268
2013-1-21,19,16,10,14,8,-2,86,66,50,30.12,29.95,29.85,10,7,1,21,11,25,0.01,7,Snow,264
2013-1-22,12,8,5,-3,-5,-7,63,56,46,30.26,30.14,29.97,10,10,10,24,21,32,0.00,4,,263
2013-1-23,15,10,5,0,-2,-5,73,58,45,30.29,30.21,30.11,10,10,7,13,11,18,0.00,6,Snow,258
2013-1-24,14,8,1,10,6,-6,92,79,59,30.59,30.34,30.09,10,4,0,16,5,21,0.17,6,Fog-Snow,323
2013-1-25,16,8,0,9,4,-5,87,76,62,30.56,30.29,30.06,10,8,2,8,4,,0.00,7,Snow,171
2013-1-26,25,15,5,17,10,1,87,77,54,30.45,30.28,30.13,10,9,3,9,1,,0.00,6,Snow,262
2013-1-27,28,16,5,16,9,1,100,80,58,30.60,30.49,30.36,10,5,0,7,1,,0.00,5,Fog,150
2013-1-28,41,32,24,39,31,15,100,90,69,30.34,30.01,29.83,10,3,1,20,7,30,0.26,8,Rain-Snow,185
2013-1-29,55,42,33,50,39,32,100,93,83,30.06,29.89,29.70,10,3,1,16,7,22,0.74,8,Rain-Thunderstorm,168
2013-1-30,62,56,50,54,49,46,94,79,59,29.64,29.27,29.05,10,8,2,23,16,33,0.41,7,Rain,204
2013-1-31,43,32,21,40,19,10,89,70,47,29.76,29.44,29.10,10,8,1,37,26,50,0.06,8,Rain-Snow,258